sensor_id;sensor_type;location;lat;lon;timestamp;temperature;humidity
58153;DHT22;43967;51.634;5.566;2023-04-15T00:00:49;18.30;61.30
58153;DHT22;43967;51.634;5.566;2023-04-15T00:06:10;18.20;61.30
58153;DHT22;43967;51.634;5.566;2023-04-15T00:11:32;18.20;61.90
58153;DHT22;43967;51.634;5.566;2023-04-15T00:16:53;18.20;61.20
58153;DHT22;43967;51.634;5.566;2023-04-15T00:22:14;18.20;61.20
58153;DHT22;43967;51.634;5.566;2023-04-15T00:27:35;18.20;61.20
58153;DHT22;43967;51.634;5.566;2023-04-15T00:32:57;18.20;61.20
58153;DHT22;43967;51.634;5.566;2023-04-15T00:38:18;18.20;61.20
58153;DHT22;43967;51.634;5.566;2023-04-15T00:43:39;18.20;61.80
58153;DHT22;43967;51.634;5.566;2023-04-15T00:49:03;18.10;61.20
58153;DHT22;43967;51.634;5.566;2023-04-15T00:54:24;18.10;61.20
58153;DHT22;43967;51.634;5.566;2023-04-15T00:59:45;18.10;61.20
58153;DHT22;43967;51.634;5.566;2023-04-15T01:05:07;18.10;61.00
58153;DHT22;43967;51.634;5.566;2023-04-15T01:10:28;18.10;61.10
58153;DHT22;43967;51.634;5.566;2023-04-15T01:15:51;18.10;61.00
58153;DHT22;43967;51.634;5.566;2023-04-15T01:21:12;18.10;61.10
58153;DHT22;43967;51.634;5.566;2023-04-15T01:26:34;18.10;61.10
58153;DHT22;43967;51.634;5.566;2023-04-15T01:31:55;18.10;61.10
58153;DHT22;43967;51.634;5.566;2023-04-15T01:37:17;18.10;61.00
58153;DHT22;43967;51.634;5.566;2023-04-15T01:42:38;18.10;61.10
58153;DHT22;43967;51.634;5.566;2023-04-15T01:47:59;18.00;61.00
58153;DHT22;43967;51.634;5.566;2023-04-15T01:53:21;18.10;61.00
58153;DHT22;43967;51.634;5.566;2023-04-15T01:58:42;18.10;61.00
58153;DHT22;43967;51.634;5.566;2023-04-15T02:04:03;18.00;61.00
58153;DHT22;43967;51.634;5.566;2023-04-15T02:09:24;18.00;61.10
58153;DHT22;43967;51.634;5.566;2023-04-15T02:14:46;18.00;61.20
58153;DHT22;43967;51.634;5.566;2023-04-15T02:20:09;18.00;61.30
58153;DHT22;43967;51.634;5.566;2023-04-15T02:25:30;18.00;61.20
58153;DHT22;43967;51.634;5.566;2023-04-15T02:30:51;18.00;61.20
58153;DHT22;43967;51.634;5.566;2023-04-15T02:36:14;18.00;61.20
58153;DHT22;43967;51.634;5.566;2023-04-15T02:41:35;18.00;61.40
58153;DHT22;43967;51.634;5.566;2023-04-15T02:46:56;18.00;61.40
58153;DHT22;43967;51.634;5.566;2023-04-15T02:52:17;18.00;61.60
58153;DHT22;43967;51.634;5.566;2023-04-15T02:57:39;18.10;61.70
58153;DHT22;43967;51.634;5.566;2023-04-15T03:03:02;18.10;61.60
58153;DHT22;43967;51.634;5.566;2023-04-15T03:08:24;18.10;61.60
58153;DHT22;43967;51.634;5.566;2023-04-15T03:13:45;18.10;61.60
58153;DHT22;43967;51.634;5.566;2023-04-15T03:19:07;18.10;61.70
58153;DHT22;43967;51.634;5.566;2023-04-15T03:24:28;18.10;61.50
58153;DHT22;43967;51.634;5.566;2023-04-15T03:29:49;18.10;61.40
58153;DHT22;43967;51.634;5.566;2023-04-15T03:35:10;18.10;61.30
58153;DHT22;43967;51.634;5.566;2023-04-15T03:40:33;18.10;61.20
58153;DHT22;43967;51.634;5.566;2023-04-15T03:45:54;18.10;61.10
58153;DHT22;43967;51.634;5.566;2023-04-15T03:51:15;18.10;61.10
58153;DHT22;43967;51.634;5.566;2023-04-15T03:56:37;18.10;61.10
58153;DHT22;43967;51.634;5.566;2023-04-15T04:01:58;18.00;61.00
58153;DHT22;43967;51.634;5.566;2023-04-15T04:07:20;18.00;61.00
58153;DHT22;43967;51.634;5.566;2023-04-15T04:12:43;18.00;61.00
58153;DHT22;43967;51.634;5.566;2023-04-15T04:18:04;18.10;61.00
58153;DHT22;43967;51.634;5.566;2023-04-15T04:23:25;18.00;61.00
58153;DHT22;43967;51.634;5.566;2023-04-15T04:28:47;18.00;61.00
58153;DHT22;43967;51.634;5.566;2023-04-15T04:34:08;18.00;60.90
58153;DHT22;43967;51.634;5.566;2023-04-15T04:39:29;18.00;60.90
58153;DHT22;43967;51.634;5.566;2023-04-15T04:44:50;17.90;60.90
58153;DHT22;43967;51.634;5.566;2023-04-15T04:50:12;17.90;60.90
58153;DHT22;43967;51.634;5.566;2023-04-15T04:55:33;17.90;60.90
58153;DHT22;43967;51.634;5.566;2023-04-15T05:00:54;17.90;60.80
58153;DHT22;43967;51.634;5.566;2023-04-15T05:06:15;17.90;61.00
58153;DHT22;43967;51.634;5.566;2023-04-15T05:11:37;17.90;61.00
58153;DHT22;43967;51.634;5.566;2023-04-15T05:16:58;17.90;61.20
58153;DHT22;43967;51.634;5.566;2023-04-15T05:22:19;17.90;61.10
58153;DHT22;43967;51.634;5.566;2023-04-15T05:27:41;17.90;61.20
58153;DHT22;43967;51.634;5.566;2023-04-15T05:33:02;17.90;61.30
58153;DHT22;43967;51.634;5.566;2023-04-15T05:38:24;17.90;62.20
58153;DHT22;43967;51.634;5.566;2023-04-15T05:43:45;17.90;61.60
58153;DHT22;43967;51.634;5.566;2023-04-15T05:49:06;17.90;61.60
58153;DHT22;43967;51.634;5.566;2023-04-15T05:54:27;17.90;61.50
58153;DHT22;43967;51.634;5.566;2023-04-15T05:59:49;17.90;61.50
58153;DHT22;43967;51.634;5.566;2023-04-15T06:05:10;18.00;61.50
58153;DHT22;43967;51.634;5.566;2023-04-15T06:10:31;18.00;61.30
58153;DHT22;43967;51.634;5.566;2023-04-15T06:15:53;17.90;61.20
58153;DHT22;43967;51.634;5.566;2023-04-15T06:21:14;17.90;61.10
58153;DHT22;43967;51.634;5.566;2023-04-15T06:26:35;17.90;61.10
58153;DHT22;43967;51.634;5.566;2023-04-15T06:31:57;17.90;61.00
58153;DHT22;43967;51.634;5.566;2023-04-15T06:37:18;17.90;61.00
58153;DHT22;43967;51.634;5.566;2023-04-15T06:42:39;17.90;61.00
58153;DHT22;43967;51.634;5.566;2023-04-15T06:48:00;17.90;60.90
58153;DHT22;43967;51.634;5.566;2023-04-15T06:53:22;17.90;61.10
58153;DHT22;43967;51.634;5.566;2023-04-15T06:58:43;18.00;61.00
58153;DHT22;43967;51.634;5.566;2023-04-15T07:04:04;18.00;60.90
58153;DHT22;43967;51.634;5.566;2023-04-15T07:09:25;18.10;60.80
58153;DHT22;43967;51.634;5.566;2023-04-15T07:14:47;18.20;60.70
58153;DHT22;43967;51.634;5.566;2023-04-15T07:20:08;18.30;60.60
58153;DHT22;43967;51.634;5.566;2023-04-15T07:25:30;18.40;61.10
58153;DHT22;43967;51.634;5.566;2023-04-15T07:30:51;18.40;60.30
58153;DHT22;43967;51.634;5.566;2023-04-15T07:36:12;18.50;60.20
58153;DHT22;43967;51.634;5.566;2023-04-15T07:41:33;18.40;60.30
58153;DHT22;43967;51.634;5.566;2023-04-15T07:46:55;18.50;60.40
58153;DHT22;43967;51.634;5.566;2023-04-15T07:52:17;18.50;60.40
58153;DHT22;43967;51.634;5.566;2023-04-15T07:57:39;18.40;60.40
58153;DHT22;43967;51.634;5.566;2023-04-15T08:03:00;18.50;60.50
58153;DHT22;43967;51.634;5.566;2023-04-15T08:08:21;18.50;60.60
58153;DHT22;43967;51.634;5.566;2023-04-15T08:13:42;18.50;60.60
58153;DHT22;43967;51.634;5.566;2023-04-15T08:19:04;18.50;60.70
58153;DHT22;43967;51.634;5.566;2023-04-15T08:24:25;18.50;60.60
58153;DHT22;43967;51.634;5.566;2023-04-15T08:29:46;18.60;60.60
58153;DHT22;43967;51.634;5.566;2023-04-15T08:35:08;18.60;60.50
58153;DHT22;43967;51.634;5.566;2023-04-15T08:40:39;18.60;60.50
58153;DHT22;43967;51.634;5.566;2023-04-15T08:46:01;18.60;60.40
58153;DHT22;43967;51.634;5.566;2023-04-15T08:51:24;18.60;61.10
58153;DHT22;43967;51.634;5.566;2023-04-15T08:56:45;18.60;60.40
58153;DHT22;43967;51.634;5.566;2023-04-15T09:02:07;18.50;60.40
58153;DHT22;43967;51.634;5.566;2023-04-15T09:07:28;18.60;60.40
58153;DHT22;43967;51.634;5.566;2023-04-15T09:12:49;18.50;60.40
58153;DHT22;43967;51.634;5.566;2023-04-15T09:18:11;18.50;60.40
58153;DHT22;43967;51.634;5.566;2023-04-15T09:23:32;18.50;60.30
58153;DHT22;43967;51.634;5.566;2023-04-15T09:29:08;18.50;60.30
58153;DHT22;43967;51.634;5.566;2023-04-15T09:34:35;18.50;60.30
58153;DHT22;43967;51.634;5.566;2023-04-15T09:39:56;18.50;60.30
58153;DHT22;43967;51.634;5.566;2023-04-15T09:45:18;18.50;60.40
58153;DHT22;43967;51.634;5.566;2023-04-15T09:50:41;18.50;60.30
58153;DHT22;43967;51.634;5.566;2023-04-15T09:56:03;18.50;60.20
58153;DHT22;43967;51.634;5.566;2023-04-15T10:01:24;18.50;60.10
58153;DHT22;43967;51.634;5.566;2023-04-15T10:06:46;18.50;60.20
58153;DHT22;43967;51.634;5.566;2023-04-15T10:12:07;18.50;60.10
58153;DHT22;43967;51.634;5.566;2023-04-15T10:17:29;18.50;60.00
58153;DHT22;43967;51.634;5.566;2023-04-15T10:22:52;18.50;59.90
58153;DHT22;43967;51.634;5.566;2023-04-15T10:28:15;18.50;59.90
58153;DHT22;43967;51.634;5.566;2023-04-15T10:33:36;18.50;60.00
58153;DHT22;43967;51.634;5.566;2023-04-15T10:38:58;18.50;59.80
58153;DHT22;43967;51.634;5.566;2023-04-15T10:44:19;18.50;59.90
58153;DHT22;43967;51.634;5.566;2023-04-15T10:49:45;18.50;59.90
58153;DHT22;43967;51.634;5.566;2023-04-15T11:00:31;18.40;59.90
58153;DHT22;43967;51.634;5.566;2023-04-15T11:05:53;18.50;59.90
58153;DHT22;43967;51.634;5.566;2023-04-15T11:11:14;18.50;59.90
58153;DHT22;43967;51.634;5.566;2023-04-15T11:16:42;18.50;60.00
58153;DHT22;43967;51.634;5.566;2023-04-15T11:22:10;18.40;60.00
58153;DHT22;43967;51.634;5.566;2023-04-15T11:27:31;18.40;60.00
58153;DHT22;43967;51.634;5.566;2023-04-15T11:32:58;18.40;60.00
58153;DHT22;43967;51.634;5.566;2023-04-15T11:38:20;18.40;60.00
58153;DHT22;43967;51.634;5.566;2023-04-15T11:43:41;18.40;60.00
58153;DHT22;43967;51.634;5.566;2023-04-15T11:49:02;18.40;60.10
58153;DHT22;43967;51.634;5.566;2023-04-15T11:54:24;18.40;60.00
58153;DHT22;43967;51.634;5.566;2023-04-15T11:59:45;18.40;60.00
58153;DHT22;43967;51.634;5.566;2023-04-15T12:05:07;18.40;60.00
58153;DHT22;43967;51.634;5.566;2023-04-15T12:10:30;18.40;60.10
58153;DHT22;43967;51.634;5.566;2023-04-15T12:15:54;18.40;60.90
58153;DHT22;43967;51.634;5.566;2023-04-15T12:21:18;18.40;61.60
58153;DHT22;43967;51.634;5.566;2023-04-15T12:26:44;18.40;62.10
58153;DHT22;43967;51.634;5.566;2023-04-15T12:32:10;18.50;62.50
58153;DHT22;43967;51.634;5.566;2023-04-15T12:37:31;18.50;62.80
58153;DHT22;43967;51.634;5.566;2023-04-15T12:42:52;18.50;63.10
58153;DHT22;43967;51.634;5.566;2023-04-15T12:48:14;18.50;63.10
58153;DHT22;43967;51.634;5.566;2023-04-15T12:53:35;18.50;63.80
58153;DHT22;43967;51.634;5.566;2023-04-15T12:58:56;18.50;63.30
58153;DHT22;43967;51.634;5.566;2023-04-15T13:04:18;18.50;63.30
58153;DHT22;43967;51.634;5.566;2023-04-15T13:09:39;18.50;63.40
58153;DHT22;43967;51.634;5.566;2023-04-15T13:15:02;18.60;63.60
58153;DHT22;43967;51.634;5.566;2023-04-15T13:20:24;18.50;63.60
58153;DHT22;43967;51.634;5.566;2023-04-15T13:25:46;18.60;63.70
58153;DHT22;43967;51.634;5.566;2023-04-15T13:31:07;18.60;63.70
58153;DHT22;43967;51.634;5.566;2023-04-15T13:36:28;18.60;63.70
58153;DHT22;43967;51.634;5.566;2023-04-15T13:41:49;18.60;63.80
58153;DHT22;43967;51.634;5.566;2023-04-15T13:47:11;18.60;63.80
58153;DHT22;43967;51.634;5.566;2023-04-15T13:52:32;18.60;63.90
58153;DHT22;43967;51.634;5.566;2023-04-15T13:57:53;18.60;64.00
58153;DHT22;43967;51.634;5.566;2023-04-15T14:03:15;18.60;64.40
58153;DHT22;43967;51.634;5.566;2023-04-15T14:08:36;18.60;64.50
58153;DHT22;43967;51.634;5.566;2023-04-15T14:13:57;18.60;64.60
58153;DHT22;43967;51.634;5.566;2023-04-15T14:19:18;18.60;64.70
58153;DHT22;43967;51.634;5.566;2023-04-15T14:24:40;18.60;64.70
58153;DHT22;43967;51.634;5.566;2023-04-15T14:30:01;18.60;64.20
58153;DHT22;43967;51.634;5.566;2023-04-15T14:35:22;18.70;63.90
58153;DHT22;43967;51.634;5.566;2023-04-15T14:40:43;18.70;63.70
58153;DHT22;43967;51.634;5.566;2023-04-15T14:46:05;18.60;63.40
58153;DHT22;43967;51.634;5.566;2023-04-15T14:51:26;18.60;63.30
58153;DHT22;43967;51.634;5.566;2023-04-15T14:56:48;18.60;63.30
58153;DHT22;43967;51.634;5.566;2023-04-15T15:02:09;18.60;63.10
58153;DHT22;43967;51.634;5.566;2023-04-15T15:07:30;18.60;63.00
58153;DHT22;43967;51.634;5.566;2023-04-15T15:12:51;18.60;63.30
58153;DHT22;43967;51.634;5.566;2023-04-15T15:18:13;18.60;62.80
58153;DHT22;43967;51.634;5.566;2023-04-15T15:23:34;18.60;62.70
58153;DHT22;43967;51.634;5.566;2023-04-15T15:28:55;18.60;62.60
58153;DHT22;43967;51.634;5.566;2023-04-15T15:34:17;18.60;62.60
58153;DHT22;43967;51.634;5.566;2023-04-15T15:39:38;18.60;62.50
58153;DHT22;43967;51.634;5.566;2023-04-15T15:45:02;18.60;62.50
58153;DHT22;43967;51.634;5.566;2023-04-15T15:50:23;18.60;62.40
58153;DHT22;43967;51.634;5.566;2023-04-15T15:55:45;18.60;62.40
58153;DHT22;43967;51.634;5.566;2023-04-15T16:01:06;18.50;62.30
58153;DHT22;43967;51.634;5.566;2023-04-15T16:06:28;18.50;62.30
58153;DHT22;43967;51.634;5.566;2023-04-15T16:11:49;18.50;62.20
58153;DHT22;43967;51.634;5.566;2023-04-15T16:17:10;18.50;62.20
58153;DHT22;43967;51.634;5.566;2023-04-15T16:22:35;18.50;62.10
58153;DHT22;43967;51.634;5.566;2023-04-15T16:27:56;18.50;62.10
58153;DHT22;43967;51.634;5.566;2023-04-15T16:33:18;18.50;62.10
58153;DHT22;43967;51.634;5.566;2023-04-15T16:38:39;18.50;62.10
58153;DHT22;43967;51.634;5.566;2023-04-15T16:44:00;18.50;62.10
58153;DHT22;43967;51.634;5.566;2023-04-15T16:49:22;18.40;61.90
58153;DHT22;43967;51.634;5.566;2023-04-15T16:54:43;18.40;62.00
58153;DHT22;43967;51.634;5.566;2023-04-15T17:00:05;18.40;61.90
58153;DHT22;43967;51.634;5.566;2023-04-15T17:05:26;18.40;61.80
58153;DHT22;43967;51.634;5.566;2023-04-15T17:10:47;18.40;61.80
58153;DHT22;43967;51.634;5.566;2023-04-15T17:16:09;18.40;61.80
58153;DHT22;43967;51.634;5.566;2023-04-15T17:21:30;18.40;61.80
58153;DHT22;43967;51.634;5.566;2023-04-15T17:26:52;18.40;61.70
58153;DHT22;43967;51.634;5.566;2023-04-15T17:32:14;18.40;61.70
58153;DHT22;43967;51.634;5.566;2023-04-15T17:37:35;18.40;61.80
58153;DHT22;43967;51.634;5.566;2023-04-15T17:42:57;18.40;61.70
58153;DHT22;43967;51.634;5.566;2023-04-15T17:48:18;18.30;61.60
58153;DHT22;43967;51.634;5.566;2023-04-15T17:53:40;18.30;61.60
58153;DHT22;43967;51.634;5.566;2023-04-15T17:59:01;18.30;61.50
58153;DHT22;43967;51.634;5.566;2023-04-15T18:04:23;18.30;61.60
58153;DHT22;43967;51.634;5.566;2023-04-15T18:09:44;18.30;61.60
58153;DHT22;43967;51.634;5.566;2023-04-15T18:15:06;18.30;61.50
58153;DHT22;43967;51.634;5.566;2023-04-15T18:20:27;18.30;61.60
58153;DHT22;43967;51.634;5.566;2023-04-15T18:25:48;18.30;61.60
58153;DHT22;43967;51.634;5.566;2023-04-15T18:31:10;18.30;61.60
58153;DHT22;43967;51.634;5.566;2023-04-15T18:36:31;18.30;61.50
58153;DHT22;43967;51.634;5.566;2023-04-15T18:41:53;18.30;61.50
58153;DHT22;43967;51.634;5.566;2023-04-15T18:47:15;18.30;61.50
58153;DHT22;43967;51.634;5.566;2023-04-15T18:52:37;18.30;61.50
58153;DHT22;43967;51.634;5.566;2023-04-15T18:57:58;18.30;61.50
58153;DHT22;43967;51.634;5.566;2023-04-15T19:03:19;18.20;61.30
58153;DHT22;43967;51.634;5.566;2023-04-15T19:08:41;18.20;61.40
58153;DHT22;43967;51.634;5.566;2023-04-15T19:14:02;18.30;61.50
58153;DHT22;43967;51.634;5.566;2023-04-15T19:19:23;18.20;61.50
58153;DHT22;43967;51.634;5.566;2023-04-15T19:24:45;18.20;61.50
58153;DHT22;43967;51.634;5.566;2023-04-15T19:30:06;18.20;61.50
58153;DHT22;43967;51.634;5.566;2023-04-15T19:35:28;18.20;61.50
58153;DHT22;43967;51.634;5.566;2023-04-15T19:40:49;18.20;61.50
58153;DHT22;43967;51.634;5.566;2023-04-15T19:46:10;18.20;61.50
58153;DHT22;43967;51.634;5.566;2023-04-15T19:51:32;18.20;61.50
58153;DHT22;43967;51.634;5.566;2023-04-15T19:56:53;18.10;61.50
58153;DHT22;43967;51.634;5.566;2023-04-15T20:02:14;18.10;61.50
58153;DHT22;43967;51.634;5.566;2023-04-15T20:07:35;18.10;61.50
58153;DHT22;43967;51.634;5.566;2023-04-15T20:12:57;18.10;61.50
58153;DHT22;43967;51.634;5.566;2023-04-15T20:18:18;18.10;61.50
58153;DHT22;43967;51.634;5.566;2023-04-15T20:23:39;18.10;61.60
58153;DHT22;43967;51.634;5.566;2023-04-15T20:29:01;18.10;61.50
58153;DHT22;43967;51.634;5.566;2023-04-15T20:34:22;18.10;61.50
58153;DHT22;43967;51.634;5.566;2023-04-15T20:39:43;18.10;61.60
58153;DHT22;43967;51.634;5.566;2023-04-15T20:45:05;18.00;61.50
58153;DHT22;43967;51.634;5.566;2023-04-15T20:50:26;18.10;61.60
58153;DHT22;43967;51.634;5.566;2023-04-15T20:55:47;18.10;61.60
58153;DHT22;43967;51.634;5.566;2023-04-15T21:01:09;18.00;61.50
58153;DHT22;43967;51.634;5.566;2023-04-15T21:06:32;18.00;61.50
58153;DHT22;43967;51.634;5.566;2023-04-15T21:11:53;18.00;61.60
58153;DHT22;43967;51.634;5.566;2023-04-15T21:17:15;18.10;61.60
58153;DHT22;43967;51.634;5.566;2023-04-15T21:22:36;18.00;61.60
58153;DHT22;43967;51.634;5.566;2023-04-15T21:27:57;18.00;61.60
58153;DHT22;43967;51.634;5.566;2023-04-15T21:33:18;18.00;61.60
58153;DHT22;43967;51.634;5.566;2023-04-15T21:38:40;18.00;61.70
58153;DHT22;43967;51.634;5.566;2023-04-15T21:44:02;18.00;61.60
58153;DHT22;43967;51.634;5.566;2023-04-15T21:49:23;18.00;61.60
58153;DHT22;43967;51.634;5.566;2023-04-15T21:54:44;18.00;61.70
58153;DHT22;43967;51.634;5.566;2023-04-15T22:00:06;18.00;61.70
58153;DHT22;43967;51.634;5.566;2023-04-15T22:05:28;17.90;61.70
58153;DHT22;43967;51.634;5.566;2023-04-15T22:10:49;18.00;61.70
58153;DHT22;43967;51.634;5.566;2023-04-15T22:16:10;17.90;61.70
58153;DHT22;43967;51.634;5.566;2023-04-15T22:21:32;17.90;61.80
58153;DHT22;43967;51.634;5.566;2023-04-15T22:26:53;18.00;61.80
58153;DHT22;43967;51.634;5.566;2023-04-15T22:32:14;17.90;61.90
58153;DHT22;43967;51.634;5.566;2023-04-15T22:37:35;17.90;62.10
58153;DHT22;43967;51.634;5.566;2023-04-15T22:42:57;17.90;62.30
58153;DHT22;43967;51.634;5.566;2023-04-15T22:48:18;17.90;62.50
58153;DHT22;43967;51.634;5.566;2023-04-15T22:53:39;18.00;62.70
58153;DHT22;43967;51.634;5.566;2023-04-15T22:59:00;18.00;62.60
58153;DHT22;43967;51.634;5.566;2023-04-15T23:04:22;18.00;62.50
58153;DHT22;43967;51.634;5.566;2023-04-15T23:09:43;18.00;62.40
58153;DHT22;43967;51.634;5.566;2023-04-15T23:15:04;18.00;62.30
58153;DHT22;43967;51.634;5.566;2023-04-15T23:20:26;18.00;62.30
58153;DHT22;43967;51.634;5.566;2023-04-15T23:25:47;18.00;62.20
58153;DHT22;43967;51.634;5.566;2023-04-15T23:31:08;18.00;62.20
58153;DHT22;43967;51.634;5.566;2023-04-15T23:36:29;18.00;62.20
58153;DHT22;43967;51.634;5.566;2023-04-15T23:41:51;18.00;62.20
58153;DHT22;43967;51.634;5.566;2023-04-15T23:47:13;18.00;62.20
58153;DHT22;43967;51.634;5.566;2023-04-15T23:52:34;18.00;62.20
58153;DHT22;43967;51.634;5.566;2023-04-15T23:57:55;17.90;62.10
